Terminal Aerodrome Forecast
Issued by NWS Cleveland, OH

Home | Current Version | Previous Version | Graphics & Text | Print | Product List | Glossary Off
Versions: 1 2 3 4 5 6 7 8 9 10 11 12 13 14 15 16 17 18 19

000
FTUS41 KCLE 011100
TAFERI
TAF
KERI 011120Z 0112/0212 18005KT P6SM SCT012 BKN035
      TEMPO 0112/0115 5SM HZ BKN012
     FM011600 22010KT P6SM BKN045
     FM011800 24012KT P6SM SCT045
     FM012000 22010KT P6SM SCT045 BKN250
     FM020200 18010KT 6SM BR BKN045
     FM020800 22011KT 6SM -SHRA BR VCTS BKN015CB=

USA.gov is the U.S. government's official web portal to all federal, state and local government web resources and services.